Aviation Digital Data Service (ADDS)

Output produced by METARs form (0455 UTC 16 February 2019)
found at http://www.aviationweather.gov/metar/data/
 
Forecast for: OERK (RIYADH/KING KHAL, SA)
Text: TAF OERK 152300Z 1600/1706 23012KT 8000 SCT040
Forecast period: 0000 to 0600 UTC 16 February 2019
Forecast type: FROM: standard forecast or significant change
Winds: from the SW (230 degrees) at 14 MPH (12 knots; 6.2 m/s)
Visibility: 5 miles (8 km)
Ceiling: at least 12,000 feet AGL
Clouds: scattered clouds at 4000 feet AGL
Weather: no significant weather forecast for this period
Text: TEMPO 1600/1608 TSRA FEW035CB
Forecast period: 0000 to 0800 UTC 16 February 2019
Forecast type: TEMPORARY: The following changes expected for less than half the time period
Visibility: missing
Ceiling: at least 12,000 feet AGL
Clouds: few clouds at 3500 feet AGL
Weather: TSRA  (rain associated with thunderstorm(s))
Text: BECMG 1606/1608 31015KT
Forecast period: 0600 UTC 16 February 2019 to 0600 UTC 17 February 2019
Forecast type: BECOMING: Conditions expected to become as follows by 0800 UTC 16 February 2019
Winds: from the NW (310 degrees) at 17 MPH (15 knots; 7.7 m/s)
Visibility: 5 miles (8 km)
Ceiling: at least 12,000 feet AGL
Clouds: scattered clouds at 4000 feet AGL
Weather: no significant weather forecast for this period